sensor_id;sensor_type;location;lat;lon;timestamp;P1;durP1;ratioP1;P2;durP2;ratioP2
49193;SDS011;35029;50.804;12.866;2023-09-07T00:00:12;6.55;;;4.75;;
49193;SDS011;35029;50.804;12.866;2023-09-07T00:02:38;6.28;;;5.35;;
49193;SDS011;35029;50.804;12.866;2023-09-07T00:05:04;6.53;;;4.90;;
49193;SDS011;35029;50.804;12.866;2023-09-07T00:07:31;5.75;;;5.10;;
49193;SDS011;35029;50.804;12.866;2023-09-07T00:09:57;7.32;;;4.90;;
49193;SDS011;35029;50.804;12.866;2023-09-07T00:12:22;10.30;;;5.25;;
49193;SDS011;35029;50.804;12.866;2023-09-07T00:14:48;5.95;;;4.70;;
49193;SDS011;35029;50.804;12.866;2023-09-07T00:17:13;10.20;;;5.00;;
49193;SDS011;35029;50.804;12.866;2023-09-07T00:19:39;6.10;;;5.28;;
49193;SDS011;35029;50.804;12.866;2023-09-07T00:22:04;5.80;;;4.88;;
49193;SDS011;35029;50.804;12.866;2023-09-07T00:24:30;7.95;;;4.88;;
49193;SDS011;35029;50.804;12.866;2023-09-07T00:26:57;6.18;;;5.13;;
49193;SDS011;35029;50.804;12.866;2023-09-07T00:29:22;7.63;;;5.30;;
49193;SDS011;35029;50.804;12.866;2023-09-07T00:31:48;5.82;;;5.25;;
49193;SDS011;35029;50.804;12.866;2023-09-07T00:45:28;6.40;;;5.28;;
49193;SDS011;35029;50.804;12.866;2023-09-07T00:47:54;8.27;;;4.70;;
49193;SDS011;35029;50.804;12.866;2023-09-07T00:50:22;6.80;;;4.97;;
49193;SDS011;35029;50.804;12.866;2023-09-07T00:52:47;5.80;;;5.20;;
49193;SDS011;35029;50.804;12.866;2023-09-07T00:55:13;7.05;;;4.88;;
49193;SDS011;35029;50.804;12.866;2023-09-07T00:57:39;5.55;;;4.68;;
49193;SDS011;35029;50.804;12.866;2023-09-07T01:00:07;6.00;;;5.40;;
49193;SDS011;35029;50.804;12.866;2023-09-07T01:02:34;7.22;;;6.15;;
49193;SDS011;35029;50.804;12.866;2023-09-07T01:05:01;6.00;;;4.78;;
49193;SDS011;35029;50.804;12.866;2023-09-07T01:07:32;7.25;;;5.60;;
49193;SDS011;35029;50.804;12.866;2023-09-07T01:10:01;8.25;;;5.15;;
49193;SDS011;35029;50.804;12.866;2023-09-07T01:12:28;7.78;;;5.20;;
49193;SDS011;35029;50.804;12.866;2023-09-07T01:14:53;7.15;;;5.18;;
49193;SDS011;35029;50.804;12.866;2023-09-07T01:17:19;5.57;;;4.95;;
49193;SDS011;35029;50.804;12.866;2023-09-07T01:19:50;5.57;;;4.97;;
49193;SDS011;35029;50.804;12.866;2023-09-07T01:22:18;6.32;;;5.53;;
49193;SDS011;35029;50.804;12.866;2023-09-07T01:24:48;7.97;;;5.68;;
49193;SDS011;35029;50.804;12.866;2023-09-07T01:27:15;7.88;;;5.20;;
49193;SDS011;35029;50.804;12.866;2023-09-07T01:29:41;6.10;;;5.07;;
49193;SDS011;35029;50.804;12.866;2023-09-07T01:32:07;5.07;;;4.35;;
49193;SDS011;35029;50.804;12.866;2023-09-07T01:34:35;5.63;;;5.13;;
49193;SDS011;35029;50.804;12.866;2023-09-07T01:37:00;5.05;;;4.50;;
49193;SDS011;35029;50.804;12.866;2023-09-07T01:39:26;7.03;;;4.95;;
49193;SDS011;35029;50.804;12.866;2023-09-07T01:41:52;4.88;;;4.32;;
49193;SDS011;35029;50.804;12.866;2023-09-07T01:44:17;5.43;;;4.88;;
49193;SDS011;35029;50.804;12.866;2023-09-07T01:46:43;5.38;;;4.80;;
49193;SDS011;35029;50.804;12.866;2023-09-07T01:49:08;5.60;;;5.10;;
49193;SDS011;35029;50.804;12.866;2023-09-07T01:51:35;7.57;;;5.50;;
49193;SDS011;35029;50.804;12.866;2023-09-07T01:54:02;5.78;;;5.20;;
49193;SDS011;35029;50.804;12.866;2023-09-07T01:56:27;5.45;;;4.93;;
49193;SDS011;35029;50.804;12.866;2023-09-07T01:58:53;6.13;;;5.22;;
49193;SDS011;35029;50.804;12.866;2023-09-07T02:01:22;6.45;;;5.45;;
49193;SDS011;35029;50.804;12.866;2023-09-07T02:03:52;5.43;;;4.93;;
49193;SDS011;35029;50.804;12.866;2023-09-07T02:06:18;7.35;;;5.00;;
49193;SDS011;35029;50.804;12.866;2023-09-07T02:08:44;7.35;;;5.43;;
49193;SDS011;35029;50.804;12.866;2023-09-07T02:11:09;6.20;;;5.55;;
49193;SDS011;35029;50.804;12.866;2023-09-07T02:13:35;7.45;;;5.53;;
49193;SDS011;35029;50.804;12.866;2023-09-07T02:16:04;6.15;;;5.47;;
49193;SDS011;35029;50.804;12.866;2023-09-07T02:18:31;7.38;;;5.20;;
49193;SDS011;35029;50.804;12.866;2023-09-07T02:21:02;7.90;;;4.70;;
49193;SDS011;35029;50.804;12.866;2023-09-07T02:23:29;5.50;;;4.90;;
49193;SDS011;35029;50.804;12.866;2023-09-07T02:25:55;7.30;;;5.65;;
49193;SDS011;35029;50.804;12.866;2023-09-07T02:28:20;5.82;;;4.85;;
49193;SDS011;35029;50.804;12.866;2023-09-07T02:30:46;6.57;;;5.07;;
49193;SDS011;35029;50.804;12.866;2023-09-07T02:33:11;7.30;;;5.18;;
49193;SDS011;35029;50.804;12.866;2023-09-07T02:35:37;6.80;;;5.03;;
49193;SDS011;35029;50.804;12.866;2023-09-07T02:38:03;6.40;;;4.72;;
49193;SDS011;35029;50.804;12.866;2023-09-07T02:40:28;5.45;;;4.93;;
49193;SDS011;35029;50.804;12.866;2023-09-07T02:42:54;5.78;;;5.18;;
49193;SDS011;35029;50.804;12.866;2023-09-07T02:45:20;5.47;;;4.95;;
49193;SDS011;35029;50.804;12.866;2023-09-07T02:47:45;9.25;;;5.53;;
49193;SDS011;35029;50.804;12.866;2023-09-07T02:50:12;11.55;;;5.28;;
49193;SDS011;35029;50.804;12.866;2023-09-07T02:52:39;6.00;;;4.97;;
49193;SDS011;35029;50.804;12.866;2023-09-07T02:55:05;5.43;;;4.93;;
49193;SDS011;35029;50.804;12.866;2023-09-07T02:57:31;6.22;;;5.00;;
49193;SDS011;35029;50.804;12.866;2023-09-07T02:59:57;6.95;;;4.63;;
49193;SDS011;35029;50.804;12.866;2023-09-07T03:02:22;5.40;;;4.90;;
49193;SDS011;35029;50.804;12.866;2023-09-07T03:04:53;7.82;;;5.20;;
49193;SDS011;35029;50.804;12.866;2023-09-07T03:07:20;5.32;;;4.65;;
49193;SDS011;35029;50.804;12.866;2023-09-07T03:09:46;5.85;;;4.82;;
49193;SDS011;35029;50.804;12.866;2023-09-07T03:12:12;5.90;;;4.95;;
49193;SDS011;35029;50.804;12.866;2023-09-07T03:14:37;6.10;;;5.35;;
49193;SDS011;35029;50.804;12.866;2023-09-07T03:17:03;5.68;;;4.80;;
49193;SDS011;35029;50.804;12.866;2023-09-07T03:19:29;5.95;;;5.35;;
49193;SDS011;35029;50.804;12.866;2023-09-07T03:21:54;9.02;;;7.20;;
49193;SDS011;35029;50.804;12.866;2023-09-07T03:24:20;8.25;;;6.63;;
49193;SDS011;35029;50.804;12.866;2023-09-07T03:26:46;10.25;;;8.15;;
49193;SDS011;35029;50.804;12.866;2023-09-07T03:29:12;12.57;;;7.68;;
49193;SDS011;35029;50.804;12.866;2023-09-07T03:31:37;6.88;;;6.18;;
49193;SDS011;35029;50.804;12.866;2023-09-07T03:34:03;7.10;;;5.70;;
49193;SDS011;35029;50.804;12.866;2023-09-07T03:36:30;6.50;;;5.80;;
49193;SDS011;35029;50.804;12.866;2023-09-07T03:38:56;7.55;;;5.93;;
49193;SDS011;35029;50.804;12.866;2023-09-07T03:41:22;7.38;;;4.88;;
49193;SDS011;35029;50.804;12.866;2023-09-07T03:43:47;8.25;;;5.13;;
49193;SDS011;35029;50.804;12.866;2023-09-07T03:46:13;7.13;;;5.43;;
49193;SDS011;35029;50.804;12.866;2023-09-07T03:48:38;6.60;;;5.07;;
49193;SDS011;35029;50.804;12.866;2023-09-07T03:51:05;5.93;;;5.40;;
49193;SDS011;35029;50.804;12.866;2023-09-07T03:53:31;5.72;;;5.13;;
49193;SDS011;35029;50.804;12.866;2023-09-07T03:55:57;5.88;;;5.07;;
49193;SDS011;35029;50.804;12.866;2023-09-07T03:58:23;7.75;;;5.25;;
49193;SDS011;35029;50.804;12.866;2023-09-07T04:00:49;6.43;;;5.15;;
49193;SDS011;35029;50.804;12.866;2023-09-07T04:03:16;5.82;;;5.22;;
49193;SDS011;35029;50.804;12.866;2023-09-07T04:05:41;6.70;;;5.20;;
49193;SDS011;35029;50.804;12.866;2023-09-07T04:08:07;5.80;;;5.20;;
49193;SDS011;35029;50.804;12.866;2023-09-07T04:10:33;6.22;;;5.28;;
49193;SDS011;35029;50.804;12.866;2023-09-07T04:13:01;5.53;;;5.03;;
49193;SDS011;35029;50.804;12.866;2023-09-07T04:15:28;6.72;;;5.30;;
49193;SDS011;35029;50.804;12.866;2023-09-07T04:17:56;6.70;;;5.30;;
49193;SDS011;35029;50.804;12.866;2023-09-07T04:20:22;6.25;;;5.47;;
49193;SDS011;35029;50.804;12.866;2023-09-07T04:22:49;8.52;;;5.15;;
49193;SDS011;35029;50.804;12.866;2023-09-07T04:25:15;5.95;;;5.35;;
49193;SDS011;35029;50.804;12.866;2023-09-07T04:27:40;6.10;;;5.35;;
49193;SDS011;35029;50.804;12.866;2023-09-07T04:30:07;5.45;;;4.90;;
49193;SDS011;35029;50.804;12.866;2023-09-07T04:32:33;6.18;;;5.25;;
49193;SDS011;35029;50.804;12.866;2023-09-07T04:34:59;9.07;;;5.63;;
49193;SDS011;35029;50.804;12.866;2023-09-07T04:37:26;5.90;;;5.30;;
49193;SDS011;35029;50.804;12.866;2023-09-07T04:39:52;6.82;;;6.13;;
49193;SDS011;35029;50.804;12.866;2023-09-07T04:42:19;9.23;;;5.63;;
49193;SDS011;35029;50.804;12.866;2023-09-07T04:44:46;9.77;;;5.70;;
49193;SDS011;35029;50.804;12.866;2023-09-07T04:47:12;6.82;;;5.85;;
49193;SDS011;35029;50.804;12.866;2023-09-07T04:49:37;6.40;;;5.57;;
49193;SDS011;35029;50.804;12.866;2023-09-07T04:52:03;6.35;;;5.75;;
49193;SDS011;35029;50.804;12.866;2023-09-07T04:54:29;7.82;;;6.50;;
49193;SDS011;35029;50.804;12.866;2023-09-07T04:56:54;6.72;;;6.03;;
49193;SDS011;35029;50.804;12.866;2023-09-07T04:59:20;8.80;;;5.35;;
49193;SDS011;35029;50.804;12.866;2023-09-07T05:01:45;7.85;;;6.32;;
49193;SDS011;35029;50.804;12.866;2023-09-07T05:04:11;7.97;;;6.22;;
49193;SDS011;35029;50.804;12.866;2023-09-07T05:06:37;7.18;;;5.70;;
49193;SDS011;35029;50.804;12.866;2023-09-07T05:09:05;6.07;;;5.50;;
49193;SDS011;35029;50.804;12.866;2023-09-07T05:11:31;6.85;;;5.97;;
49193;SDS011;35029;50.804;12.866;2023-09-07T05:14:00;6.80;;;6.10;;
49193;SDS011;35029;50.804;12.866;2023-09-07T05:16:27;6.88;;;6.07;;
49193;SDS011;35029;50.804;12.866;2023-09-07T05:18:53;8.73;;;5.95;;
49193;SDS011;35029;50.804;12.866;2023-09-07T05:21:19;6.75;;;6.05;;
49193;SDS011;35029;50.804;12.866;2023-09-07T05:23:46;6.30;;;5.70;;
49193;SDS011;35029;50.804;12.866;2023-09-07T05:26:11;7.75;;;6.15;;
49193;SDS011;35029;50.804;12.866;2023-09-07T05:28:39;8.68;;;5.80;;
49193;SDS011;35029;50.804;12.866;2023-09-07T05:31:06;6.85;;;5.85;;
49193;SDS011;35029;50.804;12.866;2023-09-07T05:33:33;6.90;;;5.57;;
49193;SDS011;35029;50.804;12.866;2023-09-07T05:35:59;8.10;;;5.60;;
49193;SDS011;35029;50.804;12.866;2023-09-07T05:38:27;11.18;;;6.45;;
49193;SDS011;35029;50.804;12.866;2023-09-07T05:40:52;6.72;;;5.82;;
49193;SDS011;35029;50.804;12.866;2023-09-07T05:43:21;8.43;;;6.35;;
49193;SDS011;35029;50.804;12.866;2023-09-07T05:45:47;8.57;;;5.32;;
49193;SDS011;35029;50.804;12.866;2023-09-07T05:48:13;6.82;;;5.28;;
49193;SDS011;35029;50.804;12.866;2023-09-07T05:50:40;7.65;;;5.15;;
49193;SDS011;35029;50.804;12.866;2023-09-07T05:53:06;9.52;;;5.28;;
49193;SDS011;35029;50.804;12.866;2023-09-07T05:55:32;6.47;;;5.88;;
49193;SDS011;35029;50.804;12.866;2023-09-07T05:57:59;7.70;;;6.03;;
49193;SDS011;35029;50.804;12.866;2023-09-07T06:00:27;6.43;;;5.65;;
49193;SDS011;35029;50.804;12.866;2023-09-07T06:02:52;8.40;;;5.75;;
49193;SDS011;35029;50.804;12.866;2023-09-07T06:05:18;10.05;;;6.50;;
49193;SDS011;35029;50.804;12.866;2023-09-07T06:07:44;7.50;;;6.43;;
49193;SDS011;35029;50.804;12.866;2023-09-07T06:10:11;9.55;;;6.95;;
49193;SDS011;35029;50.804;12.866;2023-09-07T06:12:37;8.07;;;5.88;;
49193;SDS011;35029;50.804;12.866;2023-09-07T06:15:03;9.65;;;6.88;;
49193;SDS011;35029;50.804;12.866;2023-09-07T06:17:29;13.55;;;7.13;;
49193;SDS011;35029;50.804;12.866;2023-09-07T06:19:55;8.23;;;6.72;;
49193;SDS011;35029;50.804;12.866;2023-09-07T06:22:21;11.02;;;7.32;;
49193;SDS011;35029;50.804;12.866;2023-09-07T06:24:49;11.93;;;7.75;;
49193;SDS011;35029;50.804;12.866;2023-09-07T06:27:14;11.02;;;7.75;;
49193;SDS011;35029;50.804;12.866;2023-09-07T06:29:40;11.55;;;7.30;;
49193;SDS011;35029;50.804;12.866;2023-09-07T06:32:06;7.97;;;7.20;;
49193;SDS011;35029;50.804;12.866;2023-09-07T06:34:31;13.35;;;8.15;;
49193;SDS011;35029;50.804;12.866;2023-09-07T06:36:57;11.45;;;7.35;;
49193;SDS011;35029;50.804;12.866;2023-09-07T06:39:23;10.15;;;6.75;;
49193;SDS011;35029;50.804;12.866;2023-09-07T06:41:48;12.93;;;7.15;;
49193;SDS011;35029;50.804;12.866;2023-09-07T06:44:16;9.23;;;6.85;;
49193;SDS011;35029;50.804;12.866;2023-09-07T06:46:42;7.45;;;6.55;;
49193;SDS011;35029;50.804;12.866;2023-09-07T06:49:08;10.18;;;6.90;;
49193;SDS011;35029;50.804;12.866;2023-09-07T06:51:33;9.70;;;7.05;;
49193;SDS011;35029;50.804;12.866;2023-09-07T06:53:59;7.78;;;6.97;;
49193;SDS011;35029;50.804;12.866;2023-09-07T06:56:26;9.48;;;7.10;;
49193;SDS011;35029;50.804;12.866;2023-09-07T06:58:52;9.55;;;6.90;;
49193;SDS011;35029;50.804;12.866;2023-09-07T07:01:18;9.00;;;6.75;;
49193;SDS011;35029;50.804;12.866;2023-09-07T07:03:44;8.45;;;7.18;;
49193;SDS011;35029;50.804;12.866;2023-09-07T07:06:10;7.22;;;6.28;;
49193;SDS011;35029;50.804;12.866;2023-09-07T07:08:36;8.73;;;6.65;;
49193;SDS011;35029;50.804;12.866;2023-09-07T07:11:01;9.60;;;6.40;;
49193;SDS011;35029;50.804;12.866;2023-09-07T07:13:27;9.20;;;6.82;;
49193;SDS011;35029;50.804;12.866;2023-09-07T07:15:52;12.00;;;6.93;;
49193;SDS011;35029;50.804;12.866;2023-09-07T07:18:19;7.10;;;6.40;;
49193;SDS011;35029;50.804;12.866;2023-09-07T07:20:45;7.50;;;6.43;;
49193;SDS011;35029;50.804;12.866;2023-09-07T07:23:11;7.78;;;6.10;;
49193;SDS011;35029;50.804;12.866;2023-09-07T07:25:38;6.32;;;5.75;;
49193;SDS011;35029;50.804;12.866;2023-09-07T07:28:04;7.30;;;5.90;;
49193;SDS011;35029;50.804;12.866;2023-09-07T07:30:33;9.55;;;6.40;;
49193;SDS011;35029;50.804;12.866;2023-09-07T07:33:00;6.22;;;5.53;;
49193;SDS011;35029;50.804;12.866;2023-09-07T07:35:26;8.02;;;6.30;;
49193;SDS011;35029;50.804;12.866;2023-09-07T07:37:52;7.28;;;6.28;;
49193;SDS011;35029;50.804;12.866;2023-09-07T07:40:18;8.57;;;5.43;;
49193;SDS011;35029;50.804;12.866;2023-09-07T07:42:44;9.25;;;5.63;;
49193;SDS011;35029;50.804;12.866;2023-09-07T07:45:12;13.02;;;6.28;;
49193;SDS011;35029;50.804;12.866;2023-09-07T07:47:39;6.15;;;4.80;;
49193;SDS011;35029;50.804;12.866;2023-09-07T07:50:06;8.98;;;5.45;;
49193;SDS011;35029;50.804;12.866;2023-09-07T07:52:32;10.52;;;5.78;;
49193;SDS011;35029;50.804;12.866;2023-09-07T07:54:58;6.07;;;5.40;;
49193;SDS011;35029;50.804;12.866;2023-09-07T07:57:23;9.68;;;5.32;;
49193;SDS011;35029;50.804;12.866;2023-09-07T07:59:49;6.78;;;4.95;;
49193;SDS011;35029;50.804;12.866;2023-09-07T08:02:14;7.80;;;5.68;;
49193;SDS011;35029;50.804;12.866;2023-09-07T08:04:40;8.38;;;5.80;;
49193;SDS011;35029;50.804;12.866;2023-09-07T08:07:06;6.20;;;5.60;;
49193;SDS011;35029;50.804;12.866;2023-09-07T08:09:34;7.38;;;5.38;;
49193;SDS011;35029;50.804;12.866;2023-09-07T08:12:00;6.30;;;4.75;;
49193;SDS011;35029;50.804;12.866;2023-09-07T08:14:30;5.90;;;5.18;;
49193;SDS011;35029;50.804;12.866;2023-09-07T08:16:56;5.05;;;4.55;;
49193;SDS011;35029;50.804;12.866;2023-09-07T08:19:22;8.57;;;5.63;;
49193;SDS011;35029;50.804;12.866;2023-09-07T08:21:48;5.63;;;4.80;;
49193;SDS011;35029;50.804;12.866;2023-09-07T08:24:14;5.65;;;4.68;;
49193;SDS011;35029;50.804;12.866;2023-09-07T08:26:39;6.30;;;4.82;;
49193;SDS011;35029;50.804;12.866;2023-09-07T08:29:05;5.45;;;4.88;;
49193;SDS011;35029;50.804;12.866;2023-09-07T08:31:32;5.88;;;4.57;;
49193;SDS011;35029;50.804;12.866;2023-09-07T08:34:03;6.60;;;4.40;;
49193;SDS011;35029;50.804;12.866;2023-09-07T08:36:29;9.55;;;5.68;;
49193;SDS011;35029;50.804;12.866;2023-09-07T08:38:59;4.82;;;4.32;;
49193;SDS011;35029;50.804;12.866;2023-09-07T08:41:37;5.63;;;4.40;;
49193;SDS011;35029;50.804;12.866;2023-09-07T08:44:16;4.95;;;4.15;;
49193;SDS011;35029;50.804;12.866;2023-09-07T08:46:43;4.50;;;3.80;;
49193;SDS011;35029;50.804;12.866;2023-09-07T08:49:10;6.32;;;4.40;;
49193;SDS011;35029;50.804;12.866;2023-09-07T08:51:37;6.22;;;4.47;;
49193;SDS011;35029;50.804;12.866;2023-09-07T08:54:03;4.72;;;4.32;;
49193;SDS011;35029;50.804;12.866;2023-09-07T08:56:30;6.93;;;4.32;;
49193;SDS011;35029;50.804;12.866;2023-09-07T08:58:56;4.93;;;4.15;;
49193;SDS011;35029;50.804;12.866;2023-09-07T09:01:22;4.85;;;4.35;;
49193;SDS011;35029;50.804;12.866;2023-09-07T09:03:51;4.50;;;3.90;;
49193;SDS011;35029;50.804;12.866;2023-09-07T09:06:17;4.03;;;3.47;;
49193;SDS011;35029;50.804;12.866;2023-09-07T09:11:09;4.55;;;3.97;;
49193;SDS011;35029;50.804;12.866;2023-09-07T09:13:36;3.90;;;3.50;;
49193;SDS011;35029;50.804;12.866;2023-09-07T09:16:01;7.68;;;3.90;;
49193;SDS011;35029;50.804;12.866;2023-09-07T09:18:27;5.78;;;4.03;;
49193;SDS011;35029;50.804;12.866;2023-09-07T09:20:55;4.95;;;3.85;;
49193;SDS011;35029;50.804;12.866;2023-09-07T09:23:21;4.40;;;3.67;;
49193;SDS011;35029;50.804;12.866;2023-09-07T09:25:50;5.28;;;3.72;;
49193;SDS011;35029;50.804;12.866;2023-09-07T09:28:16;5.03;;;3.72;;
49193;SDS011;35029;50.804;12.866;2023-09-07T09:30:42;3.85;;;3.25;;
49193;SDS011;35029;50.804;12.866;2023-09-07T09:33:11;4.88;;;3.80;;
49193;SDS011;35029;50.804;12.866;2023-09-07T09:35:37;6.40;;;3.70;;
49193;SDS011;35029;50.804;12.866;2023-09-07T09:38:05;4.43;;;3.80;;
49193;SDS011;35029;50.804;12.866;2023-09-07T09:40:31;4.32;;;3.42;;
49193;SDS011;35029;50.804;12.866;2023-09-07T09:43:00;4.72;;;4.22;;
49193;SDS011;35029;50.804;12.866;2023-09-07T09:45:27;3.60;;;3.30;;
49193;SDS011;35029;50.804;12.866;2023-09-07T09:47:53;3.95;;;3.60;;
49193;SDS011;35029;50.804;12.866;2023-09-07T09:50:21;7.18;;;3.63;;
49193;SDS011;35029;50.804;12.866;2023-09-07T09:52:47;4.03;;;3.58;;
49193;SDS011;35029;50.804;12.866;2023-09-07T09:55:13;3.85;;;3.45;;
49193;SDS011;35029;50.804;12.866;2023-09-07T09:57:40;4.50;;;3.33;;
49193;SDS011;35029;50.804;12.866;2023-09-07T10:00:06;3.45;;;3.13;;
49193;SDS011;35029;50.804;12.866;2023-09-07T10:02:46;3.85;;;3.42;;
49193;SDS011;35029;50.804;12.866;2023-09-07T10:05:15;4.18;;;3.33;;
49193;SDS011;35029;50.804;12.866;2023-09-07T10:07:48;6.50;;;3.75;;
49193;SDS011;35029;50.804;12.866;2023-09-07T10:10:15;9.15;;;3.25;;
49193;SDS011;35029;50.804;12.866;2023-09-07T10:12:50;4.15;;;3.22;;
49193;SDS011;35029;50.804;12.866;2023-09-07T10:20:29;3.65;;;3.35;;
49193;SDS011;35029;50.804;12.866;2023-09-07T10:23:11;4.60;;;3.58;;
49193;SDS011;35029;50.804;12.866;2023-09-07T10:25:37;4.88;;;3.20;;
49193;SDS011;35029;50.804;12.866;2023-09-07T10:28:02;4.43;;;3.47;;
49193;SDS011;35029;50.804;12.866;2023-09-07T10:30:29;4.57;;;3.70;;
49193;SDS011;35029;50.804;12.866;2023-09-07T10:32:54;4.45;;;3.55;;
49193;SDS011;35029;50.804;12.866;2023-09-07T10:35:20;3.58;;;3.28;;
49193;SDS011;35029;50.804;12.866;2023-09-07T10:40:23;3.95;;;3.13;;
49193;SDS011;35029;50.804;12.866;2023-09-07T10:43:00;3.97;;;3.40;;
49193;SDS011;35029;50.804;12.866;2023-09-07T10:45:26;4.28;;;3.28;;
49193;SDS011;35029;50.804;12.866;2023-09-07T10:47:51;3.88;;;3.30;;
49193;SDS011;35029;50.804;12.866;2023-09-07T10:50:17;3.33;;;2.80;;
49193;SDS011;35029;50.804;12.866;2023-09-07T10:52:42;3.50;;;3.10;;
49193;SDS011;35029;50.804;12.866;2023-09-07T10:55:08;4.10;;;3.40;;
49193;SDS011;35029;50.804;12.866;2023-09-07T10:57:45;5.55;;;3.20;;
49193;SDS011;35029;50.804;12.866;2023-09-07T11:00:12;5.38;;;3.00;;
49193;SDS011;35029;50.804;12.866;2023-09-07T11:02:39;3.97;;;3.10;;
49193;SDS011;35029;50.804;12.866;2023-09-07T11:05:06;3.35;;;2.97;;
49193;SDS011;35029;50.804;12.866;2023-09-07T11:07:32;3.78;;;2.90;;
49193;SDS011;35029;50.804;12.866;2023-09-07T11:09:59;4.78;;;3.20;;
49193;SDS011;35029;50.804;12.866;2023-09-07T11:12:24;3.80;;;3.20;;
49193;SDS011;35029;50.804;12.866;2023-09-07T11:14:50;4.05;;;3.30;;
49193;SDS011;35029;50.804;12.866;2023-09-07T11:17:17;4.40;;;3.60;;
49193;SDS011;35029;50.804;12.866;2023-09-07T11:19:42;3.95;;;3.47;;
49193;SDS011;35029;50.804;12.866;2023-09-07T11:22:11;3.65;;;3.22;;
49193;SDS011;35029;50.804;12.866;2023-09-07T11:24:37;4.20;;;3.40;;
49193;SDS011;35029;50.804;12.866;2023-09-07T11:27:03;4.10;;;3.58;;
49193;SDS011;35029;50.804;12.866;2023-09-07T11:29:30;3.85;;;3.50;;
49193;SDS011;35029;50.804;12.866;2023-09-07T11:32:06;4.80;;;3.20;;
49193;SDS011;35029;50.804;12.866;2023-09-07T11:34:35;8.15;;;3.45;;
49193;SDS011;35029;50.804;12.866;2023-09-07T11:37:12;3.65;;;3.35;;
49193;SDS011;35029;50.804;12.866;2023-09-07T11:39:38;3.90;;;3.20;;
49193;SDS011;35029;50.804;12.866;2023-09-07T11:42:03;4.32;;;3.63;;
49193;SDS011;35029;50.804;12.866;2023-09-07T11:44:29;3.85;;;3.45;;
49193;SDS011;35029;50.804;12.866;2023-09-07T11:46:55;3.63;;;3.05;;
49193;SDS011;35029;50.804;12.866;2023-09-07T11:49:20;3.50;;;3.20;;
49193;SDS011;35029;50.804;12.866;2023-09-07T11:51:46;4.38;;;3.33;;
49193;SDS011;35029;50.804;12.866;2023-09-07T11:54:12;4.35;;;3.72;;
49193;SDS011;35029;50.804;12.866;2023-09-07T11:56:38;4.45;;;2.75;;
49193;SDS011;35029;50.804;12.866;2023-09-07T11:59:08;6.90;;;3.55;;
49193;SDS011;35029;50.804;12.866;2023-09-07T12:01:34;4.25;;;3.33;;
49193;SDS011;35029;50.804;12.866;2023-09-07T12:04:00;7.65;;;4.07;;
49193;SDS011;35029;50.804;12.866;2023-09-07T12:06:26;4.07;;;3.55;;
49193;SDS011;35029;50.804;12.866;2023-09-07T12:09:01;5.80;;;3.40;;
49193;SDS011;35029;50.804;12.866;2023-09-07T12:11:31;3.63;;;3.30;;
49193;SDS011;35029;50.804;12.866;2023-09-07T12:13:57;3.53;;;3.22;;
49193;SDS011;35029;50.804;12.866;2023-09-07T12:16:26;7.78;;;2.97;;
49193;SDS011;35029;50.804;12.866;2023-09-07T12:18:52;5.32;;;3.72;;
49193;SDS011;35029;50.804;12.866;2023-09-07T12:21:18;6.60;;;3.33;;
49193;SDS011;35029;50.804;12.866;2023-09-07T12:23:44;3.13;;;2.83;;
49193;SDS011;35029;50.804;12.866;2023-09-07T12:26:10;3.33;;;3.03;;
49193;SDS011;35029;50.804;12.866;2023-09-07T12:28:35;4.68;;;3.20;;
49193;SDS011;35029;50.804;12.866;2023-09-07T12:31:01;3.03;;;2.80;;
49193;SDS011;35029;50.804;12.866;2023-09-07T12:33:27;4.60;;;3.47;;
49193;SDS011;35029;50.804;12.866;2023-09-07T12:35:55;7.85;;;3.30;;
49193;SDS011;35029;50.804;12.866;2023-09-07T12:38:21;5.93;;;3.10;;
49193;SDS011;35029;50.804;12.866;2023-09-07T12:40:52;4.50;;;3.00;;
49193;SDS011;35029;50.804;12.866;2023-09-07T12:43:18;7.30;;;4.03;;
49193;SDS011;35029;50.804;12.866;2023-09-07T12:45:44;4.00;;;3.50;;
49193;SDS011;35029;50.804;12.866;2023-09-07T12:48:10;8.10;;;3.42;;
49193;SDS011;35029;50.804;12.866;2023-09-07T12:50:36;4.07;;;3.53;;
49193;SDS011;35029;50.804;12.866;2023-09-07T12:53:01;3.15;;;2.70;;
49193;SDS011;35029;50.804;12.866;2023-09-07T12:55:27;5.38;;;3.22;;
49193;SDS011;35029;50.804;12.866;2023-09-07T12:57:55;3.25;;;2.95;;
49193;SDS011;35029;50.804;12.866;2023-09-07T13:00:20;4.57;;;3.22;;
49193;SDS011;35029;50.804;12.866;2023-09-07T13:02:46;3.50;;;3.13;;
49193;SDS011;35029;50.804;12.866;2023-09-07T13:05:11;4.03;;;3.05;;
49193;SDS011;35029;50.804;12.866;2023-09-07T13:07:37;3.65;;;2.92;;
49193;SDS011;35029;50.804;12.866;2023-09-07T13:10:02;4.53;;;3.45;;
49193;SDS011;35029;50.804;12.866;2023-09-07T13:12:29;3.35;;;3.05;;
49193;SDS011;35029;50.804;12.866;2023-09-07T13:14:56;5.57;;;3.05;;
49193;SDS011;35029;50.804;12.866;2023-09-07T13:17:21;5.18;;;3.15;;
49193;SDS011;35029;50.804;12.866;2023-09-07T13:19:47;7.22;;;3.65;;
49193;SDS011;35029;50.804;12.866;2023-09-07T13:22:13;5.47;;;3.47;;
49193;SDS011;35029;50.804;12.866;2023-09-07T13:24:39;4.55;;;3.20;;
49193;SDS011;35029;50.804;12.866;2023-09-07T13:27:04;6.38;;;3.60;;
49193;SDS011;35029;50.804;12.866;2023-09-07T13:29:31;5.75;;;3.75;;
49193;SDS011;35029;50.804;12.866;2023-09-07T13:31:57;4.20;;;3.28;;
49193;SDS011;35029;50.804;12.866;2023-09-07T13:34:23;4.35;;;3.65;;
49193;SDS011;35029;50.804;12.866;2023-09-07T13:36:49;3.60;;;3.30;;
49193;SDS011;35029;50.804;12.866;2023-09-07T13:39:15;3.42;;;3.13;;
49193;SDS011;35029;50.804;12.866;2023-09-07T13:41:41;5.30;;;3.42;;
49193;SDS011;35029;50.804;12.866;2023-09-07T13:44:06;5.80;;;3.80;;
49193;SDS011;35029;50.804;12.866;2023-09-07T13:46:33;3.28;;;3.03;;
49193;SDS011;35029;50.804;12.866;2023-09-07T13:48:59;4.75;;;3.55;;
49193;SDS011;35029;50.804;12.866;2023-09-07T13:51:25;4.45;;;3.22;;
49193;SDS011;35029;50.804;12.866;2023-09-07T13:53:51;4.95;;;3.42;;
49193;SDS011;35029;50.804;12.866;2023-09-07T13:56:17;4.25;;;3.60;;
49193;SDS011;35029;50.804;12.866;2023-09-07T13:58:43;4.57;;;3.20;;
49193;SDS011;35029;50.804;12.866;2023-09-07T14:01:09;4.30;;;3.90;;
49193;SDS011;35029;50.804;12.866;2023-09-07T14:03:34;5.00;;;4.00;;
49193;SDS011;35029;50.804;12.866;2023-09-07T14:06:02;3.78;;;3.22;;
49193;SDS011;35029;50.804;12.866;2023-09-07T14:08:27;3.90;;;3.47;;
49193;SDS011;35029;50.804;12.866;2023-09-07T14:10:55;5.75;;;4.18;;
49193;SDS011;35029;50.804;12.866;2023-09-07T14:13:21;4.07;;;3.50;;
49193;SDS011;35029;50.804;12.866;2023-09-07T14:15:46;4.15;;;3.40;;
49193;SDS011;35029;50.804;12.866;2023-09-07T14:18:12;8.38;;;4.05;;
49193;SDS011;35029;50.804;12.866;2023-09-07T14:20:37;4.63;;;3.95;;
49193;SDS011;35029;50.804;12.866;2023-09-07T14:23:03;4.60;;;3.58;;
49193;SDS011;35029;50.804;12.866;2023-09-07T14:25:29;5.47;;;3.35;;
49193;SDS011;35029;50.804;12.866;2023-09-07T14:27:55;8.25;;;3.40;;
49193;SDS011;35029;50.804;12.866;2023-09-07T14:30:20;6.03;;;3.63;;
49193;SDS011;35029;50.804;12.866;2023-09-07T14:32:46;3.90;;;3.50;;
49193;SDS011;35029;50.804;12.866;2023-09-07T14:35:14;3.80;;;3.13;;
49193;SDS011;35029;50.804;12.866;2023-09-07T14:37:42;3.97;;;3.35;;
49193;SDS011;35029;50.804;12.866;2023-09-07T14:40:08;3.80;;;3.33;;
49193;SDS011;35029;50.804;12.866;2023-09-07T14:42:34;3.83;;;2.97;;
49193;SDS011;35029;50.804;12.866;2023-09-07T14:44:59;4.07;;;3.53;;
49193;SDS011;35029;50.804;12.866;2023-09-07T14:47:28;6.10;;;3.50;;
49193;SDS011;35029;50.804;12.866;2023-09-07T14:49:54;3.92;;;3.45;;